Time;durP1;ratioP1;P1;durP2;ratioP2;P2;SDS_P1;SDS_P2;PMS_P1;PMS_P2;Temp;Humidity;BMP_temperature;BMP_pressure;BME280_temperature;BME280_humidity;BME280_pressure;Samples;Min_cycle;Max_cycle;Signal;HPM_P1;HPM_P2
2023/06/05 00:01:39;;;;;;;6.25;4.57;;;12.50;99.90;;;;;;5130639;28;20039;-58
2023/06/05 00:04:05;;;;;;;8.57;3.95;;;12.40;99.90;;;;;;5131284;28;20035;-58
2023/06/05 00:06:31;;;;;;;8.43;4.15;;;12.30;99.90;;;;;;5131116;28;20043;-58
2023/06/05 00:08:58;;;;;;;10.18;4.53;;;12.20;99.90;;;;;;5129500;28;20035;-58
2023/06/05 00:11:23;;;;;;;8.52;5.07;;;12.10;99.90;;;;;;5131231;28;20039;-58
2023/06/05 00:13:49;;;;;;;8.93;5.30;;;12.10;99.90;;;;;;5131195;28;20042;-58
2023/06/05 00:16:16;;;;;;;8.32;5.13;;;12.10;99.90;;;;;;5131477;28;20039;-58
2023/06/05 00:18:45;;;;;;;9.00;5.28;;;12.10;99.90;;;;;;5130995;28;20122;-58
2023/06/05 00:21:12;;;;;;;8.00;5.13;;;12.10;99.90;;;;;;5112916;28;20050;-59
2023/06/05 00:23:38;;;;;;;7.13;5.22;;;12.10;99.90;;;;;;5133393;27;20027;-58
2023/06/05 00:26:04;;;;;;;8.38;5.07;;;12.10;99.90;;;;;;5116822;27;20500;-58
2023/06/05 00:28:30;;;;;;;11.07;4.70;;;12.10;99.90;;;;;;5116584;27;20184;-59
2023/06/05 00:30:55;;;;;;;9.15;5.40;;;12.00;99.90;;;;;;5132928;27;20027;-58
2023/06/05 00:33:21;;;;;;;11.15;4.88;;;11.90;99.90;;;;;;5134679;27;20046;-59
2023/06/05 00:35:47;;;;;;;10.50;5.80;;;11.80;99.90;;;;;;5134498;27;20027;-58
2023/06/05 00:38:12;;;;;;;8.68;5.50;;;11.80;99.90;;;;;;5134375;27;20083;-58
2023/06/05 00:40:38;;;;;;;7.88;5.43;;;11.80;99.90;;;;;;5134900;27;20099;-58
2023/06/05 00:43:05;;;;;;;9.90;6.22;;;11.80;99.90;;;;;;5133663;27;20534;-58
2023/06/05 00:45:31;;;;;;;10.55;5.97;;;11.80;99.90;;;;;;5134749;27;20035;-59
2023/06/05 00:47:58;;;;;;;10.73;6.15;;;11.70;99.90;;;;;;5116052;27;20111;-58
2023/06/05 00:50:24;;;;;;;10.32;6.65;;;11.70;99.90;;;;;;5134840;27;20043;-58
2023/06/05 00:52:54;;;;;;;12.93;6.50;;;11.60;99.90;;;;;;5134483;27;20379;-58
2023/06/05 00:55:20;;;;;;;8.38;6.10;;;12.40;99.90;;;;;;5134346;27;20051;-58
2023/06/05 00:57:46;;;;;;;7.97;5.72;;;11.50;99.90;;;;;;5134155;27;20043;-59
2023/06/05 01:00:14;;;;;;;9.80;4.78;;;11.50;99.90;;;;;;5134883;27;20161;-58
2023/06/05 01:02:41;;;;;;;10.75;5.10;;;11.50;99.90;;;;;;5098634;27;20054;-58
2023/06/05 01:05:07;;;;;;;9.10;5.93;;;11.50;99.90;;;;;;5134414;27;20031;-58
2023/06/05 01:07:34;;;;;;;10.82;6.65;;;11.50;99.90;;;;;;5115191;27;20136;-58
2023/06/05 01:10:03;;;;;;;9.48;4.75;;;11.50;99.90;;;;;;5134650;27;20946;-58
2023/06/05 01:13:15;;;;;;;9.52;4.97;;;11.40;99.90;;;;;;5134104;27;20046;-58
2023/06/05 01:15:40;;;;;;;8.60;5.72;;;11.40;99.90;;;;;;5127424;27;20102;-58
2023/06/05 01:18:09;;;;;;;10.32;6.65;;;11.40;99.90;;;;;;5133843;27;20102;-58
2023/06/05 01:20:35;;;;;;;9.30;5.50;;;11.40;99.90;;;;;;5134453;27;20045;-58
2023/06/05 01:23:03;;;;;;;9.80;5.07;;;11.40;99.90;;;;;;5134322;27;20039;-58
2023/06/05 01:25:29;;;;;;;10.02;5.38;;;11.20;99.90;;;;;;5114953;27;20069;-58
2023/06/05 01:28:04;;;;;;;9.43;6.65;;;11.20;99.90;;;;;;5133784;27;20039;-58
2023/06/05 01:30:36;;;;;;;13.27;5.40;;;11.10;99.90;;;;;;5115459;27;20113;-58
2023/06/05 01:33:12;;;;;;;9.27;6.45;;;11.10;99.90;;;;;;5133565;27;20038;-58
2023/06/05 01:35:40;;;;;;;12.38;4.75;;;11.10;99.90;;;;;;5133362;27;20031;-58
2023/06/05 01:38:09;;;;;;;11.15;7.25;;;11.00;99.90;;;;;;5133359;27;20088;-58
2023/06/05 01:40:36;;;;;;;12.23;6.53;;;11.00;99.90;;;;;;5133765;27;20023;-58
2023/06/05 01:43:05;;;;;;;10.65;7.30;;;11.00;99.90;;;;;;5133772;27;20070;-58
2023/06/05 01:45:31;;;;;;;10.23;6.75;;;11.00;99.90;;;;;;5133713;27;20047;-58
2023/06/05 01:47:57;;;;;;;11.55;6.38;;;11.00;99.90;;;;;;5133722;27;20125;-57
2023/06/05 01:50:24;;;;;;;11.48;5.00;;;11.00;99.90;;;;;;5133516;27;20043;-58
2023/06/05 01:52:52;;;;;;;13.18;5.80;;;10.90;99.90;;;;;;5133547;27;20512;-58
2023/06/05 01:55:26;;;;;;;13.63;7.30;;;11.00;99.90;;;;;;5133287;27;20062;-59
2023/06/05 01:57:52;;;;;;;9.20;5.55;;;10.90;99.90;;;;;;5133449;27;20039;-59
2023/06/05 02:00:18;;;;;;;12.20;7.70;;;10.90;99.90;;;;;;5131539;27;20374;-58
2023/06/05 02:02:49;;;;;;;10.38;7.63;;;10.90;99.90;;;;;;5132912;27;20084;-59
2023/06/05 02:05:16;;;;;;;10.45;8.07;;;10.90;99.90;;;;;;5132270;27;20382;-59
2023/06/05 02:07:48;;;;;;;10.02;7.90;;;10.90;99.90;;;;;;5133340;27;20658;-58
2023/06/05 02:10:15;;;;;;;10.75;8.02;;;10.80;99.90;;;;;;5133323;27;20118;-58
2023/06/05 02:12:42;;;;;;;9.30;7.40;;;10.80;99.90;;;;;;5133211;27;20148;-58
2023/06/05 02:15:12;;;;;;;11.38;7.65;;;10.80;99.90;;;;;;5114902;27;20035;-58
2023/06/05 02:17:44;;;;;;;12.00;7.95;;;10.70;99.90;;;;;;5133080;27;20108;-58
2023/06/05 02:20:13;;;;;;;10.65;5.35;;;10.70;99.90;;;;;;5133273;27;20031;-58
2023/06/05 02:22:44;;;;;;;13.15;5.93;;;10.60;99.90;;;;;;5097352;27;20042;-58
2023/06/05 02:25:13;;;;;;;10.63;8.15;;;10.60;99.90;;;;;;5132920;27;20115;-58
2023/06/05 02:27:39;;;;;;;11.50;5.43;;;10.60;99.90;;;;;;5132936;27;20121;-58
2023/06/05 02:30:06;;;;;;;15.02;7.97;;;10.60;99.90;;;;;;5132148;27;20036;-58
2023/06/05 02:32:32;;;;;;;10.48;5.55;;;10.60;99.90;;;;;;5132180;27;20289;-59
2023/06/05 02:34:58;;;;;;;11.48;8.07;;;10.60;99.90;;;;;;5132246;27;20031;-58
2023/06/05 02:37:27;;;;;;;11.00;8.18;;;10.60;99.90;;;;;;5132858;27;20027;-58
2023/06/05 02:39:53;;;;;;;13.00;5.97;;;10.50;99.90;;;;;;5131592;27;20050;-58
2023/06/05 02:42:19;;;;;;;13.02;9.48;;;10.50;99.90;;;;;;5132651;27;20035;-58
2023/06/05 02:44:45;;;;;;;11.93;6.15;;;10.40;99.90;;;;;;5131181;27;20035;-58
2023/06/05 02:47:12;;;;;;;11.63;6.53;;;10.40;99.90;;;;;;5112627;27;20037;-59
2023/06/05 02:49:37;;;;;;;13.43;6.45;;;10.30;99.90;;;;;;5132596;27;20042;-58
2023/06/05 02:52:04;;;;;;;12.43;6.25;;;10.30;99.90;;;;;;5132329;27;20031;-58
2023/06/05 02:54:30;;;;;;;13.55;6.30;;;10.30;99.90;;;;;;5132533;27;20027;-58
2023/06/05 02:57:00;;;;;;;11.20;6.13;;;10.30;99.90;;;;;;5113520;27;20502;-58
2023/06/05 02:59:27;;;;;;;12.70;8.50;;;10.20;99.90;;;;;;5132564;27;20034;-58
2023/06/05 03:01:53;;;;;;;12.65;8.90;;;10.20;99.90;;;;;;5113317;27;20138;-58
2023/06/05 03:04:21;;;;;;;12.23;9.00;;;10.20;99.90;;;;;;5132156;27;20385;-58
2023/06/05 03:06:50;;;;;;;10.88;9.23;;;10.20;99.90;;;;;;5113103;27;20043;-58
2023/06/05 03:09:19;;;;;;;12.02;8.75;;;10.20;99.90;;;;;;5132350;27;20041;-58
2023/06/05 03:11:45;;;;;;;11.70;9.40;;;10.20;99.90;;;;;;5113253;27;20043;-58
2023/06/05 03:14:11;;;;;;;13.90;9.70;;;10.20;99.90;;;;;;5132234;27;20023;-59
2023/06/05 03:16:43;;;;;;;16.98;6.35;;;10.10;99.90;;;;;;5113561;27;20113;-58
2023/06/05 03:19:10;;;;;;;11.18;5.78;;;10.10;99.90;;;;;;5132047;27;20107;-59
2023/06/05 03:21:37;;;;;;;13.25;9.05;;;10.00;99.90;;;;;;5113768;27;20126;-59
2023/06/05 03:24:05;;;;;;;12.10;9.43;;;10.00;99.90;;;;;;5132176;27;20042;-57
2023/06/05 03:26:32;;;;;;;14.38;9.27;;;10.10;99.90;;;;;;5113054;27;20250;-58
2023/06/05 03:28:58;;;;;;;12.18;9.45;;;10.10;99.90;;;;;;5113047;27;20039;-58
2023/06/05 03:31:24;;;;;;;14.07;6.47;;;10.10;99.90;;;;;;5129396;27;20100;-58
2023/06/05 03:33:51;;;;;;;11.57;9.13;;;10.00;99.90;;;;;;5112701;27;20039;-57
2023/06/05 03:36:17;;;;;;;13.00;9.38;;;10.10;99.90;;;;;;5131060;27;20390;-58
2023/06/05 03:38:43;;;;;;;11.43;5.65;;;10.00;99.90;;;;;;5131659;27;20484;-58
2023/06/05 03:41:09;;;;;;;12.10;6.93;;;10.00;99.90;;;;;;5131800;27;20466;-57
2023/06/05 03:43:36;;;;;;;14.70;6.60;;;10.00;99.90;;;;;;5131608;27;20039;-58
2023/06/05 03:46:02;;;;;;;12.40;9.65;;;10.00;99.90;;;;;;5131209;27;20462;-58
2023/06/05 03:48:28;;;;;;;13.95;9.88;;;10.00;99.90;;;;;;5131612;27;20130;-58
2023/06/05 03:50:55;;;;;;;12.82;6.53;;;10.00;99.90;;;;;;5131433;27;20079;-58
2023/06/05 03:53:22;;;;;;;15.13;10.73;;;10.00;99.90;;;;;;5131469;27;20045;-57
2023/06/05 03:55:49;;;;;;;16.13;11.60;;;10.00;99.90;;;;;;5130464;28;20494;-56
2023/06/05 03:58:16;;;;;;;21.58;8.38;;;10.00;99.90;;;;;;5134739;27;20047;-58
2023/06/05 04:00:48;;;;;;;22.30;8.07;;;9.90;99.90;;;;;;5138609;27;20035;-58
2023/06/05 04:03:15;;;;;;;21.73;7.93;;;9.90;99.90;;;;;;5137682;27;20420;-58
2023/06/05 04:05:41;;;;;;;17.63;8.13;;;9.90;99.90;;;;;;5137484;27;20130;-58
2023/06/05 04:08:11;;;;;;;15.85;11.70;;;10.00;99.90;;;;;;5138305;27;20067;-58
2023/06/05 04:10:37;;;;;;;15.50;7.93;;;9.50;99.90;;;;;;5138314;27;20061;-58
2023/06/05 04:13:03;;;;;;;18.17;6.82;;;10.10;99.90;;;;;;5138324;27;20112;-58
2023/06/05 04:15:30;;;;;;;15.52;7.05;;;10.10;99.90;;;;;;5117185;27;20041;-57
2023/06/05 04:17:56;;;;;;;14.95;7.65;;;10.10;99.90;;;;;;5137864;27;20042;-59
2023/06/05 04:20:22;;;;;;;15.73;8.15;;;10.10;99.90;;;;;;5138154;27;20031;-57
2023/06/05 04:22:48;;;;;;;16.33;8.27;;;10.10;99.90;;;;;;5138314;27;20505;-58
2023/06/05 04:25:14;;;;;;;16.55;8.23;;;10.10;99.90;;;;;;5137760;27;20027;-58
2023/06/05 04:27:44;;;;;;;18.30;8.18;;;10.10;99.90;;;;;;5138150;27;20474;-57
2023/06/05 04:30:12;;;;;;;17.45;7.88;;;10.10;99.90;;;;;;5138240;27;20039;-58
2023/06/05 04:32:39;;;;;;;12.85;7.30;;;10.70;99.90;;;;;;5137831;27;20382;-58
2023/06/05 04:35:11;;;;;;;15.80;7.90;;;10.20;99.90;;;;;;5137271;27;20035;-58
2023/06/05 04:37:39;;;;;;;16.17;8.07;;;10.20;99.90;;;;;;5138124;27;20024;-57
2023/06/05 04:40:08;;;;;;;16.70;11.02;;;10.30;99.90;;;;;;5137843;27;20035;-58
2023/06/05 04:42:34;;;;;;;16.83;7.10;;;10.30;99.90;;;;;;5137849;27;20045;-58
2023/06/05 04:45:03;;;;;;;15.70;11.10;;;10.40;99.90;;;;;;5137529;27;20091;-58
2023/06/05 04:47:29;;;;;;;13.02;7.20;;;10.40;99.90;;;;;;5138068;27;20039;-58
2023/06/05 04:49:58;;;;;;;15.50;10.68;;;10.40;99.90;;;;;;5119684;27;20504;-58
2023/06/05 04:52:24;;;;;;;13.65;7.45;;;10.50;99.90;;;;;;5138050;27;20039;-58
2023/06/05 04:54:49;;;;;;;15.02;8.02;;;10.50;99.90;;;;;;5137536;27;20035;-58
2023/06/05 04:57:16;;;;;;;16.67;8.43;;;10.60;99.90;;;;;;5137954;27;20039;-58
2023/06/05 04:59:43;;;;;;;14.32;10.60;;;10.50;99.90;;;;;;5135843;27;20116;-58
2023/06/05 05:02:09;;;;;;;14.60;7.40;;;10.70;99.90;;;;;;5135747;27;20050;-58
2023/06/05 05:04:35;;;;;;;15.35;7.75;;;10.70;99.90;;;;;;5137676;27;20039;-59
2023/06/05 05:07:03;;;;;;;15.77;7.78;;;10.80;99.90;;;;;;5137611;27;20557;-59
2023/06/05 05:09:33;;;;;;;14.23;7.60;;;10.80;99.90;;;;;;5135080;27;20043;-60
2023/06/05 05:11:59;;;;;;;14.90;7.78;;;10.90;99.90;;;;;;5134327;27;20108;-59
2023/06/05 05:14:28;;;;;;;14.73;10.82;;;10.90;99.90;;;;;;5134091;27;20080;-59
2023/06/05 05:16:57;;;;;;;16.88;8.35;;;11.00;99.90;;;;;;5134430;27;20099;-59
2023/06/05 05:19:22;;;;;;;21.75;9.73;;;11.00;99.90;;;;;;5133281;27;20074;-59
2023/06/05 05:21:48;;;;;;;16.95;7.97;;;11.10;99.90;;;;;;5134606;27;20097;-59
2023/06/05 05:24:14;;;;;;;19.27;7.63;;;11.20;99.90;;;;;;5134273;27;20123;-59
2023/06/05 05:26:41;;;;;;;16.23;8.43;;;11.20;99.90;;;;;;5134443;27;20039;-59
2023/06/05 05:29:07;;;;;;;17.52;8.68;;;11.20;99.90;;;;;;5133965;27;20031;-59
2023/06/05 05:31:33;;;;;;;13.73;10.10;;;11.30;99.90;;;;;;5134377;27;20122;-59
2023/06/05 05:33:59;;;;;;;13.02;10.18;;;11.40;99.90;;;;;;5133717;27;20114;-59
2023/06/05 05:36:26;;;;;;;17.30;7.50;;;11.50;99.90;;;;;;5134258;27;20031;-59
2023/06/05 05:38:52;;;;;;;13.77;7.88;;;11.50;99.90;;;;;;5133699;27;20045;-59
2023/06/05 05:41:18;;;;;;;20.40;8.05;;;11.50;99.90;;;;;;5133557;27;20091;-59
2023/06/05 05:43:44;;;;;;;15.80;8.07;;;11.70;99.90;;;;;;5115191;27;20051;-59
2023/06/05 05:46:10;;;;;;;14.43;7.72;;;11.70;99.90;;;;;;5130549;27;20100;-59
2023/06/05 05:48:36;;;;;;;12.32;9.40;;;11.70;99.90;;;;;;5132815;27;20121;-59
2023/06/05 05:51:02;;;;;;;12.57;7.32;;;11.80;99.90;;;;;;5133716;27;20080;-60
2023/06/05 05:53:28;;;;;;;10.82;6.57;;;11.80;99.90;;;;;;5114917;27;20410;-59
2023/06/05 05:55:54;;;;;;;11.10;8.40;;;11.80;99.90;;;;;;5133446;27;20077;-59
2023/06/05 05:58:20;;;;;;;12.18;7.50;;;11.90;99.90;;;;;;5133709;27;20039;-59
2023/06/05 06:00:46;;;;;;;10.45;8.88;;;11.90;99.90;;;;;;5133691;27;20490;-59
2023/06/05 06:03:13;;;;;;;10.20;8.57;;;12.00;99.90;;;;;;5133253;27;20039;-59
2023/06/05 06:05:39;;;;;;;10.65;8.57;;;12.00;99.90;;;;;;5133464;27;20045;-58
2023/06/05 06:08:06;;;;;;;12.70;9.10;;;12.10;99.90;;;;;;5131061;27;20035;-59
2023/06/05 06:10:32;;;;;;;10.48;6.03;;;12.20;99.90;;;;;;5131740;27;20528;-59
2023/06/05 06:12:58;;;;;;;11.57;6.65;;;12.20;99.90;;;;;;5132655;27;20166;-58
2023/06/05 06:15:24;;;;;;;12.90;6.53;;;12.30;99.90;;;;;;5133180;27;20110;-58
2023/06/05 06:17:50;;;;;;;10.25;6.45;;;12.40;99.90;;;;;;5122590;27;20200;-58
2023/06/05 06:20:15;;;;;;;8.68;5.57;;;12.40;99.90;;;;;;5123614;27;20080;-58
2023/06/05 06:22:44;;;;;;;11.68;7.07;;;12.50;99.90;;;;;;5123121;27;20403;-58
2023/06/05 06:25:15;;;;;;;9.75;7.20;;;12.50;99.90;;;;;;5124251;27;20050;-58
2023/06/05 06:27:48;;;;;;;9.45;7.00;;;12.60;99.90;;;;;;5123682;27;20063;-59
2023/06/05 06:30:15;;;;;;;9.70;6.10;;;12.60;99.90;;;;;;5094742;27;20154;-58
2023/06/05 06:32:41;;;;;;;9.85;5.40;;;12.70;99.90;;;;;;5122476;27;20053;-58
2023/06/05 06:35:07;;;;;;;9.13;5.68;;;12.70;99.90;;;;;;5112941;27;20032;-58
2023/06/05 06:37:33;;;;;;;10.55;6.63;;;12.70;99.90;;;;;;5124093;27;20057;-58
2023/06/05 06:39:59;;;;;;;9.63;5.88;;;12.80;99.90;;;;;;5123980;27;20031;-58
2023/06/05 06:42:26;;;;;;;11.23;6.55;;;12.80;99.90;;;;;;5123800;27;20108;-58
2023/06/05 06:44:55;;;;;;;9.88;6.70;;;12.90;99.90;;;;;;5122671;27;20039;-59
2023/06/05 06:47:22;;;;;;;10.05;5.80;;;12.90;99.90;;;;;;5123968;27;20035;-58
2023/06/05 06:49:48;;;;;;;9.75;5.50;;;13.00;99.90;;;;;;5123890;27;20110;-58
2023/06/05 06:52:14;;;;;;;10.65;5.45;;;13.00;99.90;;;;;;5123902;27;20126;-59
2023/06/05 06:54:39;;;;;;;8.95;6.40;;;13.10;99.90;;;;;;5129909;27;20031;-56
2023/06/05 06:57:05;;;;;;;9.98;7.13;;;13.10;99.90;;;;;;5130754;27;20039;-61
2023/06/05 06:59:31;;;;;;;12.82;6.45;;;13.20;99.90;;;;;;5130041;27;20039;-59
2023/06/05 07:02:29;;;;;;;8.88;5.60;;;13.30;99.90;;;;;;5130567;27;20035;-59
2023/06/05 07:04:54;;;;;;;12.13;5.60;;;13.40;99.90;;;;;;5080225;27;20398;-58
2023/06/05 07:07:21;;;;;;;9.57;5.40;;;13.40;99.90;;;;;;5129781;27;20035;-58
2023/06/05 07:09:51;;;;;;;10.15;5.47;;;13.40;99.90;;;;;;5111210;27;20050;-58
2023/06/05 07:12:19;;;;;;;9.38;6.40;;;13.50;99.90;;;;;;5109605;27;20065;-58
2023/06/05 07:14:45;;;;;;;9.27;5.00;;;13.60;99.90;;;;;;5127134;27;20496;-58
2023/06/05 07:17:10;;;;;;;9.27;5.70;;;13.70;99.90;;;;;;5128033;27;20031;-57
2023/06/05 07:19:36;;;;;;;8.50;5.18;;;13.70;99.90;;;;;;5110616;27;20056;-58
2023/06/05 07:22:05;;;;;;;8.05;5.72;;;13.80;99.90;;;;;;5131054;27;20546;-58
2023/06/05 07:24:33;;;;;;;8.80;5.20;;;13.90;99.90;;;;;;5131136;27;20042;-58
2023/06/05 07:27:03;;;;;;;8.52;4.55;;;14.00;99.90;;;;;;5131382;27;20363;-59
2023/06/05 07:29:30;;;;;;;9.07;4.70;;;14.00;99.90;;;;;;5131164;27;20130;-58
2023/06/05 07:31:57;;;;;;;9.00;4.97;;;14.10;99.90;;;;;;5131199;27;20381;-58
2023/06/05 07:34:24;;;;;;;8.82;5.05;;;14.20;99.90;;;;;;5110996;27;20054;-58
2023/06/05 07:36:55;;;;;;;8.75;4.82;;;14.20;99.90;;;;;;5112984;27;20216;-59
2023/06/05 07:39:22;;;;;;;7.35;4.40;;;14.20;99.90;;;;;;5131135;27;20031;-58
2023/06/05 07:41:48;;;;;;;8.48;5.03;;;14.20;99.90;;;;;;5128308;27;20047;-59
2023/06/05 07:44:19;;;;;;;6.95;5.13;;;14.20;99.90;;;;;;5078410;27;20035;-58
2023/06/05 07:46:46;;;;;;;9.10;4.63;;;14.30;99.90;;;;;;5129589;27;20505;-59
2023/06/05 07:49:12;;;;;;;7.53;4.88;;;14.30;99.90;;;;;;5128915;27;20108;-58
2023/06/05 07:51:38;;;;;;;8.45;4.15;;;14.30;99.90;;;;;;5112584;27;20027;-58
2023/06/05 07:54:11;;;;;;;8.07;4.47;;;14.40;99.90;;;;;;5131049;27;20035;-58
2023/06/05 07:56:38;;;;;;;8.43;4.53;;;14.40;99.90;;;;;;5129668;28;20521;-59
2023/06/05 07:59:05;;;;;;;6.85;4.68;;;14.50;99.90;;;;;;5127621;28;20046;-59
2023/06/05 08:01:36;;;;;;;6.60;4.60;;;14.50;99.90;;;;;;5130677;28;20899;-58
2023/06/05 08:04:03;;;;;;;7.97;5.07;;;14.60;99.90;;;;;;5129533;28;20035;-59
2023/06/05 08:06:29;;;;;;;8.15;4.85;;;14.60;99.90;;;;;;5130949;28;20505;-59
2023/06/05 08:08:55;;;;;;;6.50;4.20;;;14.60;99.90;;;;;;5108490;28;20085;-59
2023/06/05 08:11:21;;;;;;;6.45;4.38;;;14.70;99.90;;;;;;5131379;28;20031;-59
2023/06/05 08:13:47;;;;;;;6.55;4.05;;;14.70;99.90;;;;;;5109503;28;20088;-59
2023/06/05 08:16:15;;;;;;;8.60;4.10;;;14.80;99.90;;;;;;5128146;28;20110;-59
2023/06/05 08:18:41;;;;;;;7.65;4.10;;;14.80;99.90;;;;;;5129294;28;20412;-59
2023/06/05 08:21:06;;;;;;;7.18;4.32;;;14.90;99.90;;;;;;5129302;28;20466;-57
2023/06/05 08:23:32;;;;;;;8.45;4.68;;;15.00;99.90;;;;;;5130179;28;20110;-59
2023/06/05 08:25:58;;;;;;;8.48;4.85;;;15.10;99.90;;;;;;5127775;28;20121;-59
2023/06/05 08:28:24;;;;;;;6.78;4.55;;;15.10;99.90;;;;;;5130217;28;20062;-58
2023/06/05 08:30:51;;;;;;;8.77;4.53;;;15.20;99.90;;;;;;5128930;28;20031;-57
2023/06/05 08:33:18;;;;;;;10.48;4.97;;;15.30;99.90;;;;;;5128027;28;20164;-59
2023/06/05 08:35:44;;;;;;;8.63;4.40;;;15.40;99.90;;;;;;5129122;28;20076;-59
2023/06/05 08:38:10;;;;;;;7.60;4.45;;;15.40;99.90;;;;;;5094921;28;20424;-58
2023/06/05 08:40:38;;;;;;;8.02;4.60;;;15.50;99.90;;;;;;5130538;28;20043;-59
2023/06/05 08:43:04;;;;;;;11.15;4.90;;;15.50;99.90;;;;;;5129462;28;20057;-57
2023/06/05 08:45:33;;;;;;;6.72;4.22;;;15.50;99.90;;;;;;5134304;27;20050;-58
2023/06/05 08:48:03;;;;;;;9.13;4.10;;;15.60;99.90;;;;;;5134653;27;20035;-58
2023/06/05 08:50:30;;;;;;;8.13;4.57;;;15.70;99.90;;;;;;5097249;27;20095;-58
2023/06/05 08:52:59;;;;;;;5.80;3.80;;;15.80;99.90;;;;;;5132803;27;20139;-59
2023/06/05 08:55:27;;;;;;;6.07;4.05;;;15.80;99.90;;;;;;5131712;27;20062;-58
2023/06/05 08:57:53;;;;;;;8.52;3.60;;;15.90;99.90;;;;;;5110839;27;20448;-54
2023/06/05 09:00:21;;;;;;;5.57;3.92;;;16.00;99.90;;;;;;5133996;27;20031;-54
2023/06/05 09:02:47;;;;;;;6.38;3.42;;;16.10;99.90;;;;;;5133052;27;20035;-54
2023/06/05 09:05:13;;;;;;;5.70;3.25;;;16.20;99.90;;;;;;5114581;27;20054;-59
2023/06/05 09:07:40;;;;;;;6.20;3.28;;;16.30;99.90;;;;;;5114963;27;20034;-52
2023/06/05 09:10:20;;;;;;;6.70;3.65;;;16.50;99.90;;;;;;5133799;27;20035;-56
2023/06/05 09:13:12;;;;;;;7.18;3.60;;;16.60;99.90;;;;;;5132181;27;20053;-53
2023/06/05 09:15:38;;;;;;;6.13;3.50;;;16.90;99.90;;;;;;5127768;27;20122;-55
2023/06/05 09:18:08;;;;;;;5.68;3.72;;;17.10;99.90;;;;;;5127092;27;20130;-55
2023/06/05 09:20:35;;;;;;;7.18;3.30;;;17.20;99.90;;;;;;5098526;27;20046;-55
2023/06/05 09:23:02;;;;;;;5.28;3.30;;;17.40;99.90;;;;;;5115504;27;20119;-53
2023/06/05 09:25:50;;;;;;;5.72;3.38;;;17.50;99.90;;;;;;5113813;27;20521;-55
2023/06/05 09:28:17;;;;;;;6.82;3.30;;;17.70;99.90;;;;;;5128365;27;20031;-58
2023/06/05 09:31:03;;;;;;;6.30;3.67;;;17.80;99.90;;;;;;5113833;27;20051;-58
2023/06/05 09:33:31;;;;;;;5.45;3.40;;;18.00;99.90;;;;;;5131619;27;20039;-58
2023/06/05 09:36:13;;;;;;;5.03;2.78;;;18.10;99.90;;;;;;5122372;27;20415;-58
2023/06/05 09:38:40;;;;;;;4.32;2.70;;;18.30;99.90;;;;;;5124399;27;20043;-57
2023/06/05 09:41:10;;;;;;;5.82;3.20;;;18.40;99.90;;;;;;5114892;27;20083;-56
2023/06/05 09:43:36;;;;;;;6.82;3.45;;;18.50;99.90;;;;;;5125007;27;20039;-57
2023/06/05 09:46:10;;;;;;;4.65;3.08;;;18.60;99.90;;;;;;5124104;27;20043;-57
2023/06/05 09:48:36;;;;;;;;;;;18.70;99.90;;;;;;5125844;27;20052;-58
2023/06/05 09:51:09;;;;;;;6.43;2.78;;;18.70;99.90;;;;;;5124132;27;20010;-57
2023/06/05 09:53:40;;;;;;;5.95;2.78;;;18.80;99.90;;;;;;5124933;27;20054;-58
2023/06/05 09:56:09;;;;;;;5.63;3.03;;;18.90;99.90;;;;;;5121376;27;20082;-55
2023/06/05 09:58:37;;;;;;;5.93;3.10;;;19.00;99.90;;;;;;5124322;27;20031;-57
2023/06/05 10:01:06;;;;;;;5.43;2.85;;;19.10;99.90;;;;;;5120877;27;20046;-57
2023/06/05 10:03:36;;;;;;;5.00;2.80;;;19.10;99.90;;;;;;5121964;27;20039;-57
2023/06/05 10:06:05;;;;;;;6.43;2.85;;;19.10;99.90;;;;;;5124185;27;20553;-58
2023/06/05 10:08:31;;;;;;;5.30;2.90;;;19.20;99.90;;;;;;5122889;27;20165;-57
2023/06/05 10:10:57;;;;;;;4.60;2.70;;;19.30;99.90;;;;;;5123224;27;20289;-58
2023/06/05 10:13:23;;;;;;;4.55;2.60;;;19.40;99.90;;;;;;5123941;27;20436;-58
2023/06/05 10:15:53;;;;;;;5.55;2.80;;;19.50;99.90;;;;;;5124018;27;20039;-58
2023/06/05 10:18:19;;;;;;;4.20;2.22;;;19.60;99.90;;;;;;5123772;27;20066;-56
2023/06/05 10:20:47;;;;;;;4.93;2.90;;;19.60;99.90;;;;;;5124382;27;20059;-58
2023/06/05 10:23:17;;;;;;;6.05;2.60;;;19.60;99.90;;;;;;5123540;27;20088;-59
2023/06/05 10:25:44;;;;;;;7.55;3.08;;;19.70;99.90;;;;;;5117844;27;20075;-58
2023/06/05 10:28:47;;;;;;;6.32;3.03;;;19.60;99.90;;;;;;5103178;27;20035;-58
2023/06/05 10:31:53;;;;;;;6.32;3.05;;;19.70;99.90;;;;;;5122482;27;20031;-59
2023/06/05 10:34:36;;;;;;;4.57;2.80;;;19.80;99.90;;;;;;5054621;28;20319;-58
2023/06/05 10:37:08;;;;;;;5.90;2.85;;;19.90;99.90;;;;;;5118212;27;20079;-57
2023/06/05 10:39:34;;;;;;;4.70;2.88;;;20.10;99.90;;;;;;5122732;27;20035;-58
2023/06/05 10:42:01;;;;;;;5.43;2.60;;;20.10;99.90;;;;;;5121923;27;20466;-58
2023/06/05 10:44:39;;;;;;;4.95;2.70;;;20.20;99.90;;;;;;5122452;27;20039;-58
2023/06/05 10:47:34;;;;;;;7.65;2.60;;;20.30;99.90;;;;;;5121322;27;20120;-59
2023/06/05 10:50:19;;;;;;;;;;;20.30;99.90;;;;;;5122454;27;20074;-59
2023/06/05 10:52:49;;;;;;;6.60;2.47;;;20.30;99.90;;;;;;5120386;27;19934;-60
2023/06/05 10:55:15;;;;;;;6.75;2.92;;;20.40;99.90;;;;;;5116703;27;20052;-58
2023/06/05 10:58:04;;;;;;;4.28;2.50;;;20.50;99.90;;;;;;5116656;27;20070;-58
2023/06/05 11:00:33;;;;;;;4.60;2.45;;;20.60;99.90;;;;;;5117241;27;20183;-58
2023/06/05 11:02:59;;;;;;;7.72;2.80;;;20.80;99.90;;;;;;5118640;27;20490;-59
2023/06/05 11:05:26;;;;;;;6.43;2.50;;;20.90;99.90;;;;;;5119242;27;20039;-58
2023/06/05 11:08:14;;;;;;;5.20;2.70;;;21.00;99.90;;;;;;5118607;27;20114;-59
2023/06/05 11:11:13;;;;;;;4.85;2.70;;;21.00;99.60;;;;;;5118102;27;20080;-58
2023/06/05 11:13:55;;;;;;;4.85;2.63;;;21.00;99.90;;;;;;5088633;27;20063;-58
2023/06/05 11:16:32;;;;;;;4.03;2.40;;;21.10;99.40;;;;;;5117338;27;20027;-57
2023/06/05 11:19:15;;;;;;;6.95;2.40;;;21.20;99.50;;;;;;5117523;27;20031;-58
2023/06/05 11:22:10;;;;;;;4.35;2.10;;;21.30;99.90;;;;;;5117266;27;20068;-58
2023/06/05 11:24:37;;;;;;;5.90;2.40;;;21.50;99.20;;;;;;5117255;27;20088;-57
2023/06/05 11:27:09;;;;;;;4.20;2.25;;;21.50;99.80;;;;;;5118164;27;20497;-57
2023/06/05 11:29:35;;;;;;;4.05;2.17;;;21.70;99.60;;;;;;5118032;27;20043;-58
2023/06/05 11:32:10;;;;;;;5.03;2.20;;;21.80;99.50;;;;;;5115885;27;20062;-58
2023/06/05 11:34:36;;;;;;;5.50;2.35;;;21.90;99.20;;;;;;5115308;27;20400;-59
2023/06/05 11:37:18;;;;;;;4.50;2.15;;;22.00;98.70;;;;;;5117312;27;20027;-57
2023/06/05 11:39:44;;;;;;;6.15;2.67;;;22.00;98.30;;;;;;5119169;27;20117;-58
2023/06/05 11:42:10;;;;;;;4.68;2.20;;;22.00;98.30;;;;;;5117043;27;20208;-58
2023/06/05 11:44:35;;;;;;;5.75;2.10;;;22.10;98.10;;;;;;5123968;27;20050;-60
2023/06/05 11:47:02;;;;;;;6.05;2.38;;;22.20;98.10;;;;;;5106703;27;20043;-57
2023/06/05 11:49:29;;;;;;;4.40;1.98;;;22.30;98.00;;;;;;5109582;28;20039;-58
2023/06/05 11:51:55;;;;;;;5.63;2.42;;;22.50;97.90;;;;;;5130338;27;20114;-58
2023/06/05 11:54:33;;;;;;;6.00;2.50;;;22.40;97.60;;;;;;5104272;28;20039;-58
2023/06/05 11:57:10;;;;;;;3.90;2.20;;;22.60;97.40;;;;;;5129264;27;20051;-59
2023/06/05 11:59:37;;;;;;;5.10;2.45;;;22.80;97.60;;;;;;5130318;28;20039;-58
2023/06/05 12:02:04;;;;;;;4.47;2.70;;;22.90;97.20;;;;;;5130606;28;20125;-58
2023/06/05 12:04:34;;;;;;;5.28;2.42;;;23.00;96.80;;;;;;5130529;27;20047;-59
2023/06/05 12:07:01;;;;;;;4.70;1.95;;;23.00;96.90;;;;;;5112839;28;20043;-58
2023/06/05 12:09:27;;;;;;;4.72;2.38;;;23.10;97.00;;;;;;5131361;28;20489;-58
2023/06/05 12:12:05;;;;;;;6.68;2.40;;;23.30;96.70;;;;;;5131567;28;20057;-58
2023/06/05 12:14:32;;;;;;;4.60;2.28;;;23.20;96.20;;;;;;5112406;28;20043;-58
2023/06/05 12:16:58;;;;;;;5.35;2.20;;;23.20;96.50;;;;;;5131585;28;20066;-58
2023/06/05 12:19:24;;;;;;;4.53;2.35;;;23.30;96.40;;;;;;5133098;27;20502;-58
2023/06/05 12:21:52;;;;;;;5.35;2.50;;;23.30;96.10;;;;;;5135358;27;20082;-57
2023/06/05 12:24:26;;;;;;;6.13;2.08;;;23.30;95.80;;;;;;5135576;27;20039;-58
2023/06/05 12:27:04;;;;;;;3.80;2.10;;;23.40;95.70;;;;;;5135320;27;20049;-58
2023/06/05 12:29:34;;;;;;;3.88;2.10;;;23.50;95.80;;;;;;5135421;27;20042;-57
2023/06/05 12:32:02;;;;;;;4.05;2.10;;;23.60;95.70;;;;;;5135165;27;20374;-58
2023/06/05 12:34:50;;;;;;;7.80;2.00;;;23.70;95.80;;;;;;5134765;27;20478;-58
2023/06/05 12:37:37;;;;;;;4.45;2.20;;;23.90;95.70;;;;;;5135338;27;20035;-58
2023/06/05 12:40:08;;;;;;;4.95;2.30;;;24.20;94.80;;;;;;5134977;27;20031;-57
2023/06/05 12:42:37;;;;;;;5.32;2.10;;;24.30;95.10;;;;;;5134042;27;20422;-58
2023/06/05 12:45:04;;;;;;;4.28;2.03;;;24.50;94.90;;;;;;5134904;27;20043;-59
2023/06/05 12:47:30;;;;;;;3.85;2.17;;;24.60;94.60;;;;;;5134842;27;20039;-58
2023/06/05 12:49:58;;;;;;;4.47;2.28;;;24.60;94.50;;;;;;5134912;27;20112;-58
2023/06/05 12:52:28;;;;;;;4.80;2.13;;;24.70;94.40;;;;;;5134950;27;20486;-59